首页
METAR-TAF:

METAR-TAF

机场 :

Savannah/Hilton Head International Airport

薩凡納, 喬治亞, 美国

纬度: 32-07-08N, 经度: 081-12-08W, 海拔: 15米

当前天气观测

该预报发布于1小时和6分钟前的04:53 UTC
风速7节,风向西转西北
温度 17°C
湿度 63%
气压 1017 hPa
能見度: 16.1公里
天空无云

METAR: KSAV 230453Z AUTO 29007KT 10SM CLR 17/10 A3003 RMK AO2 SLP167 T01670100 403110161

时间: 01:59 (05:59 UTC)

预报

该预报发布于39分钟前的05:20 UTC
预报有效从23日的 06点(UTC)到 24日的 06点(UTC)
风速4节,风向西北
能見度: 10公里
少量云层高于25000英尺
从 23日的 1500点(UTC)
风速8节,风向
能見度: 10公里
天空无云
从 24日的 0100点(UTC)
风速3节,风向多变
能見度: 10公里
少量云层高于25000英尺

TAF: KSAV 230520Z 2306/2406 31004KT P6SM FEW250 FM231500 36008KT P6SM SKC FM240100 VRB03KT P6SM FEW250

超过4000个机场的气象观测和天气预报(METAR&TAF报告)。

可查询的气象台以黄色和红色小点在地图上表示。

将鼠标移到小点上方,可查看气象台名称。

然后点击查看天气观测和预报。

如需切换地图:点击带黑十字的绿色按钮放大地图;点击带横线的绿色按钮缩小地图;或者点击绿色箭头查看邻近地区的地图。


METAR-TAF: